sensor_id;sensor_type;location;lat;lon;timestamp;pressure;altitude;pressure_sealevel;temperature;humidity
23303;BME280;11820;48.738;9.092;2022-09-09T00:00:21;95968.88;;;17.71;100.00
23303;BME280;11820;48.738;9.092;2022-09-09T00:02:58;95968.28;;;17.64;100.00
23303;BME280;11820;48.738;9.092;2022-09-09T00:05:38;95964.09;;;17.63;100.00
23303;BME280;11820;48.738;9.092;2022-09-09T00:08:18;95966.88;;;17.78;100.00
23303;BME280;11820;48.738;9.092;2022-09-09T00:10:45;95964.81;;;17.59;100.00
23303;BME280;11820;48.738;9.092;2022-09-09T00:13:22;95966.75;;;17.68;100.00
23303;BME280;11820;48.738;9.092;2022-09-09T00:15:57;95960.88;;;17.56;100.00
23303;BME280;11820;48.738;9.092;2022-09-09T00:18:32;95965.56;;;17.54;100.00
23303;BME280;11820;48.738;9.092;2022-09-09T00:21:12;95962.06;;;17.70;100.00
23303;BME280;11820;48.738;9.092;2022-09-09T00:23:47;95958.84;;;17.63;100.00
23303;BME280;11820;48.738;9.092;2022-09-09T00:29:18;95961.97;;;17.60;100.00
23303;BME280;11820;48.738;9.092;2022-09-09T00:31:47;95950.69;;;17.60;100.00
23303;BME280;11820;48.738;9.092;2022-09-09T00:34:19;95958.97;;;17.73;100.00
23303;BME280;11820;48.738;9.092;2022-09-09T00:36:48;95950.56;;;17.71;100.00
23303;BME280;11820;48.738;9.092;2022-09-09T00:39:36;95950.53;;;17.66;100.00
23303;BME280;11820;48.738;9.092;2022-09-09T00:42:20;95947.72;;;17.73;100.00
23303;BME280;11820;48.738;9.092;2022-09-09T00:47:52;95958.50;;;17.76;100.00
23303;BME280;11820;48.738;9.092;2022-09-09T00:50:35;95956.78;;;17.65;100.00
23303;BME280;11820;48.738;9.092;2022-09-09T00:53:12;95963.59;;;17.66;100.00
23303;BME280;11820;48.738;9.092;2022-09-09T00:58:33;95952.22;;;17.77;100.00
23303;BME280;11820;48.738;9.092;2022-09-09T01:01:18;95960.56;;;17.74;100.00
23303;BME280;11820;48.738;9.092;2022-09-09T01:03:53;95956.28;;;17.68;100.00
23303;BME280;11820;48.738;9.092;2022-09-09T01:09:21;95950.66;;;17.76;100.00
23303;BME280;11820;48.738;9.092;2022-09-09T01:12:09;95947.78;;;17.78;100.00
23303;BME280;11820;48.738;9.092;2022-09-09T01:22:17;95965.44;;;17.66;100.00
23303;BME280;11820;48.738;9.092;2022-09-09T01:27:21;95970.91;;;17.64;100.00
23303;BME280;11820;48.738;9.092;2022-09-09T01:29:48;95972.06;;;17.52;100.00
23303;BME280;11820;48.738;9.092;2022-09-09T01:32:39;95971.75;;;17.48;100.00
23303;BME280;11820;48.738;9.092;2022-09-09T01:35:10;95969.81;;;17.60;100.00
23303;BME280;11820;48.738;9.092;2022-09-09T01:37:38;95967.78;;;17.67;100.00
23303;BME280;11820;48.738;9.092;2022-09-09T01:40:03;95964.63;;;17.65;100.00
23303;BME280;11820;48.738;9.092;2022-09-09T01:42:29;95965.00;;;17.52;100.00
23303;BME280;11820;48.738;9.092;2022-09-09T01:44:54;95969.81;;;17.60;100.00
23303;BME280;11820;48.738;9.092;2022-09-09T01:47:20;95967.44;;;17.59;100.00
23303;BME280;11820;48.738;9.092;2022-09-09T01:49:45;95973.47;;;17.59;100.00
23303;BME280;11820;48.738;9.092;2022-09-09T01:52:10;95968.06;;;17.66;100.00
23303;BME280;11820;48.738;9.092;2022-09-09T01:54:36;95956.56;;;17.67;100.00
23303;BME280;11820;48.738;9.092;2022-09-09T01:57:25;95960.84;;;17.78;100.00
23303;BME280;11820;48.738;9.092;2022-09-09T02:00:00;95959.03;;;17.78;100.00
23303;BME280;11820;48.738;9.092;2022-09-09T02:02:35;95952.72;;;17.74;100.00
23303;BME280;11820;48.738;9.092;2022-09-09T02:05:30;95958.91;;;17.68;100.00
23303;BME280;11820;48.738;9.092;2022-09-09T02:08:11;95964.69;;;17.70;100.00
23303;BME280;11820;48.738;9.092;2022-09-09T02:10:45;95971.50;;;17.71;100.00
23303;BME280;11820;48.738;9.092;2022-09-09T02:13:14;95962.63;;;17.72;100.00
23303;BME280;11820;48.738;9.092;2022-09-09T02:18:18;95954.22;;;17.70;100.00
23303;BME280;11820;48.738;9.092;2022-09-09T02:20:47;95952.03;;;17.62;100.00
23303;BME280;11820;48.738;9.092;2022-09-09T02:23:14;95952.63;;;17.69;100.00
23303;BME280;11820;48.738;9.092;2022-09-09T02:25:41;95962.63;;;17.72;100.00
23303;BME280;11820;48.738;9.092;2022-09-09T02:28:08;95964.19;;;17.73;100.00
23303;BME280;11820;48.738;9.092;2022-09-09T02:30:36;95967.75;;;17.62;100.00
23303;BME280;11820;48.738;9.092;2022-09-09T02:33:04;95971.63;;;17.60;100.00
23303;BME280;11820;48.738;9.092;2022-09-09T02:35:32;95967.25;;;17.65;100.00
23303;BME280;11820;48.738;9.092;2022-09-09T02:38:05;95969.13;;;17.48;100.00
23303;BME280;11820;48.738;9.092;2022-09-09T02:40:31;95962.31;;;17.47;100.00
23303;BME280;11820;48.738;9.092;2022-09-09T02:42:57;95962.88;;;17.49;100.00
23303;BME280;11820;48.738;9.092;2022-09-09T02:45:25;95963.91;;;17.48;100.00
23303;BME280;11820;48.738;9.092;2022-09-09T02:50:40;95956.44;;;17.35;100.00
23303;BME280;11820;48.738;9.092;2022-09-09T02:58:43;95936.13;;;17.42;100.00
23303;BME280;11820;48.738;9.092;2022-09-09T03:01:09;95931.31;;;17.34;100.00
23303;BME280;11820;48.738;9.092;2022-09-09T03:03:35;95941.69;;;17.29;100.00
23303;BME280;11820;48.738;9.092;2022-09-09T03:06:00;95945.34;;;17.28;100.00
23303;BME280;11820;48.738;9.092;2022-09-09T03:08:26;95944.31;;;17.29;100.00
23303;BME280;11820;48.738;9.092;2022-09-09T03:10:54;95949.47;;;17.24;100.00
23303;BME280;11820;48.738;9.092;2022-09-09T03:13:19;95958.13;;;17.08;100.00
23303;BME280;11820;48.738;9.092;2022-09-09T03:15:44;95952.66;;;17.10;100.00
23303;BME280;11820;48.738;9.092;2022-09-09T03:18:10;95947.63;;;17.03;100.00
23303;BME280;11820;48.738;9.092;2022-09-09T03:20:35;95947.16;;;16.90;100.00
23303;BME280;11820;48.738;9.092;2022-09-09T03:23:01;95951.09;;;16.92;100.00
23303;BME280;11820;48.738;9.092;2022-09-09T03:25:27;95950.28;;;17.08;100.00
23303;BME280;11820;48.738;9.092;2022-09-09T03:27:54;95951.25;;;17.02;100.00
23303;BME280;11820;48.738;9.092;2022-09-09T03:30:24;95954.44;;;17.04;100.00
23303;BME280;11820;48.738;9.092;2022-09-09T03:32:50;95942.69;;;17.07;100.00
23303;BME280;11820;48.738;9.092;2022-09-09T03:35:16;95943.97;;;17.04;100.00
23303;BME280;11820;48.738;9.092;2022-09-09T03:37:41;95951.03;;;16.87;100.00
23303;BME280;11820;48.738;9.092;2022-09-09T03:40:07;95954.13;;;16.84;100.00
23303;BME280;11820;48.738;9.092;2022-09-09T03:42:35;95954.44;;;17.04;100.00
23303;BME280;11820;48.738;9.092;2022-09-09T03:45:02;95952.84;;;17.03;100.00
23303;BME280;11820;48.738;9.092;2022-09-09T03:47:28;95956.00;;;17.05;100.00
23303;BME280;11820;48.738;9.092;2022-09-09T03:49:53;95954.44;;;17.04;100.00
23303;BME280;11820;48.738;9.092;2022-09-09T03:52:19;95949.91;;;17.00;100.00
23303;BME280;11820;48.738;9.092;2022-09-09T03:54:45;95952.06;;;16.86;100.00
23303;BME280;11820;48.738;9.092;2022-09-09T03:57:10;95954.47;;;16.88;100.00
23303;BME280;11820;48.738;9.092;2022-09-09T03:59:36;95953.72;;;16.92;100.00
23303;BME280;11820;48.738;9.092;2022-09-09T04:02:03;95956.03;;;16.89;100.00
23303;BME280;11820;48.738;9.092;2022-09-09T04:04:29;95960.63;;;16.82;100.00
23303;BME280;11820;48.738;9.092;2022-09-09T04:06:54;95959.66;;;16.71;100.00
23303;BME280;11820;48.738;9.092;2022-09-09T04:09:19;95949.41;;;16.81;100.00
23303;BME280;11820;48.738;9.092;2022-09-09T04:11:45;95952.19;;;16.96;100.00
23303;BME280;11820;48.738;9.092;2022-09-09T04:14:11;95940.50;;;16.99;100.00
23303;BME280;11820;48.738;9.092;2022-09-09T04:16:38;95951.66;;;16.94;100.00
23303;BME280;11820;48.738;9.092;2022-09-09T04:19:04;95954.44;;;17.04;100.00
23303;BME280;11820;48.738;9.092;2022-09-09T04:21:30;95962.00;;;17.06;100.00
23303;BME280;11820;48.738;9.092;2022-09-09T04:23:56;95963.91;;;17.10;100.00
23303;BME280;11820;48.738;9.092;2022-09-09T04:26:22;95963.41;;;17.13;100.00
23303;BME280;11820;48.738;9.092;2022-09-09T04:28:47;95963.59;;;17.07;100.00
23303;BME280;11820;48.738;9.092;2022-09-09T04:31:16;95971.53;;;16.95;100.00
23303;BME280;11820;48.738;9.092;2022-09-09T04:33:43;95962.97;;;17.00;100.00
23303;BME280;11820;48.738;9.092;2022-09-09T04:36:08;95961.16;;;17.00;100.00
23303;BME280;11820;48.738;9.092;2022-09-09T04:38:34;95957.25;;;17.03;100.00
23303;BME280;11820;48.738;9.092;2022-09-09T04:40:59;95954.16;;;17.06;100.00
23303;BME280;11820;48.738;9.092;2022-09-09T04:43:24;95957.69;;;16.95;100.00
23303;BME280;11820;48.738;9.092;2022-09-09T04:45:51;95959.84;;;16.81;100.00
23303;BME280;11820;48.738;9.092;2022-09-09T04:48:17;95962.53;;;16.86;100.00
23303;BME280;11820;48.738;9.092;2022-09-09T04:50:43;95962.91;;;16.95;100.00
23303;BME280;11820;48.738;9.092;2022-09-09T04:53:09;95964.91;;;16.88;100.00
23303;BME280;11820;48.738;9.092;2022-09-09T04:55:34;95967.75;;;16.86;100.00
23303;BME280;11820;48.738;9.092;2022-09-09T04:58:07;95967.59;;;16.76;100.00
23303;BME280;11820;48.738;9.092;2022-09-09T05:00:34;95973.44;;;16.83;100.00
23303;BME280;11820;48.738;9.092;2022-09-09T05:03:04;95965.63;;;16.83;100.00
23303;BME280;11820;48.738;9.092;2022-09-09T05:05:30;95979.22;;;16.85;100.00
23303;BME280;11820;48.738;9.092;2022-09-09T05:10:28;95983.81;;;16.78;100.00
23303;BME280;11820;48.738;9.092;2022-09-09T05:12:53;95986.72;;;16.82;100.00
23303;BME280;11820;48.738;9.092;2022-09-09T05:15:19;95982.25;;;16.77;100.00
23303;BME280;11820;48.738;9.092;2022-09-09T05:17:45;95985.47;;;16.84;100.00
23303;BME280;11820;48.738;9.092;2022-09-09T05:20:11;95984.38;;;16.80;100.00
23303;BME280;11820;48.738;9.092;2022-09-09T05:22:37;95979.84;;;16.76;100.00
23303;BME280;11820;48.738;9.092;2022-09-09T05:25:03;95971.06;;;16.82;100.00
23303;BME280;11820;48.738;9.092;2022-09-09T05:27:28;95975.81;;;16.68;100.00
23303;BME280;11820;48.738;9.092;2022-09-09T05:29:56;95974.41;;;16.77;100.00
23303;BME280;11820;48.738;9.092;2022-09-09T05:32:22;95988.97;;;16.73;100.00
23303;BME280;11820;48.738;9.092;2022-09-09T05:34:48;95993.53;;;16.66;100.00
23303;BME280;11820;48.738;9.092;2022-09-09T05:37:13;95985.34;;;16.74;100.00
23303;BME280;11820;48.738;9.092;2022-09-09T05:39:38;95985.53;;;16.89;100.00
23303;BME280;11820;48.738;9.092;2022-09-09T05:42:04;95992.44;;;16.79;100.00
23303;BME280;11820;48.738;9.092;2022-09-09T05:44:30;96000.03;;;16.97;100.00
23303;BME280;11820;48.738;9.092;2022-09-09T05:46:55;95997.19;;;16.82;100.00
23303;BME280;11820;48.738;9.092;2022-09-09T05:49:20;96001.78;;;16.91;100.00
23303;BME280;11820;48.738;9.092;2022-09-09T05:51:46;95998.69;;;16.94;100.00
23303;BME280;11820;48.738;9.092;2022-09-09T05:54:13;96001.47;;;17.04;100.00
23303;BME280;11820;48.738;9.092;2022-09-09T05:56:40;96004.56;;;17.01;100.00
23303;BME280;11820;48.738;9.092;2022-09-09T05:59:06;96007.16;;;17.01;100.00
23303;BME280;11820;48.738;9.092;2022-09-09T06:01:34;96011.16;;;17.09;100.00
23303;BME280;11820;48.738;9.092;2022-09-09T06:04:00;96006.97;;;17.08;100.00
23303;BME280;11820;48.738;9.092;2022-09-09T06:06:27;96005.59;;;17.00;100.00
23303;BME280;11820;48.738;9.092;2022-09-09T06:08:56;96006.63;;;16.99;100.00
23303;BME280;11820;48.738;9.092;2022-09-09T06:11:28;95998.44;;;17.12;100.00
23303;BME280;11820;48.738;9.092;2022-09-09T06:13:56;96006.50;;;16.94;100.00
23303;BME280;11820;48.738;9.092;2022-09-09T06:16:23;96000.66;;;17.04;100.00
23303;BME280;11820;48.738;9.092;2022-09-09T06:18:49;96002.88;;;17.12;100.00
23303;BME280;11820;48.738;9.092;2022-09-09T06:21:20;96000.16;;;17.23;100.00
23303;BME280;11820;48.738;9.092;2022-09-09T06:23:47;96010.25;;;16.98;100.00
23303;BME280;11820;48.738;9.092;2022-09-09T06:26:15;96007.94;;;17.02;100.00
23303;BME280;11820;48.738;9.092;2022-09-09T06:28:44;96003.03;;;17.05;100.00
23303;BME280;11820;48.738;9.092;2022-09-09T06:31:12;96005.75;;;16.94;100.00
23303;BME280;11820;48.738;9.092;2022-09-09T06:33:40;96012.88;;;16.98;100.00
23303;BME280;11820;48.738;9.092;2022-09-09T06:36:17;96005.22;;;17.13;100.00
23303;BME280;11820;48.738;9.092;2022-09-09T06:38:43;96004.03;;;17.21;100.00
23303;BME280;11820;48.738;9.092;2022-09-09T06:41:10;96008.47;;;17.20;100.00
23303;BME280;11820;48.738;9.092;2022-09-09T06:43:37;96005.22;;;17.13;100.00
23303;BME280;11820;48.738;9.092;2022-09-09T06:46:06;96011.72;;;17.27;100.00
23303;BME280;11820;48.738;9.092;2022-09-09T06:48:33;96007.59;;;17.31;100.00
23303;BME280;11820;48.738;9.092;2022-09-09T06:51:09;96000.78;;;17.30;100.00
23303;BME280;11820;48.738;9.092;2022-09-09T06:53:39;96010.13;;;17.26;100.00
23303;BME280;11820;48.738;9.092;2022-09-09T06:58:40;96000.38;;;17.38;100.00
23303;BME280;11820;48.738;9.092;2022-09-09T07:01:14;96010.25;;;17.53;100.00
23303;BME280;11820;48.738;9.092;2022-09-09T07:03:40;96008.13;;;17.50;100.00
23303;BME280;11820;48.738;9.092;2022-09-09T07:06:06;96005.56;;;17.55;100.00
23303;BME280;11820;48.738;9.092;2022-09-09T07:08:33;96012.19;;;17.62;100.00
23303;BME280;11820;48.738;9.092;2022-09-09T07:11:03;96008.13;;;17.71;100.00
23303;BME280;11820;48.738;9.092;2022-09-09T07:13:30;96003.69;;;17.72;100.00
23303;BME280;11820;48.738;9.092;2022-09-09T07:16:06;96009.66;;;17.89;100.00
23303;BME280;11820;48.738;9.092;2022-09-09T07:18:32;96010.81;;;17.76;100.00
23303;BME280;11820;48.738;9.092;2022-09-09T07:20:58;96013.00;;;17.84;100.00
23303;BME280;11820;48.738;9.092;2022-09-09T07:23:24;96013.59;;;17.91;100.00
23303;BME280;11820;48.738;9.092;2022-09-09T07:25:50;96004.69;;;17.92;100.00
23303;BME280;11820;48.738;9.092;2022-09-09T07:28:16;96006.41;;;18.03;100.00
23303;BME280;11820;48.738;9.092;2022-09-09T07:30:41;96017.28;;;18.16;100.00
23303;BME280;11820;48.738;9.092;2022-09-09T07:33:08;95999.97;;;17.89;100.00
23303;BME280;11820;48.738;9.092;2022-09-09T07:35:34;96004.56;;;18.25;100.00
23303;BME280;11820;48.738;9.092;2022-09-09T07:38:02;95999.78;;;18.22;100.00
23303;BME280;11820;48.738;9.092;2022-09-09T07:40:32;95997.31;;;18.32;100.00
23303;BME280;11820;48.738;9.092;2022-09-09T07:42:57;96004.66;;;18.35;100.00
23303;BME280;11820;48.738;9.092;2022-09-09T07:45:22;96020.72;;;18.22;100.00
23303;BME280;11820;48.738;9.092;2022-09-09T07:47:48;96016.00;;;18.19;100.00
23303;BME280;11820;48.738;9.092;2022-09-09T07:50:14;96013.53;;;18.29;100.00
23303;BME280;11820;48.738;9.092;2022-09-09T07:52:40;96008.91;;;18.41;100.00
23303;BME280;11820;48.738;9.092;2022-09-09T07:55:05;96010.41;;;18.32;100.00
23303;BME280;11820;48.738;9.092;2022-09-09T07:57:31;96018.81;;;18.34;100.00
23303;BME280;11820;48.738;9.092;2022-09-09T07:59:57;96021.53;;;18.49;100.00
23303;BME280;11820;48.738;9.092;2022-09-09T08:02:25;96023.09;;;18.45;100.00
23303;BME280;11820;48.738;9.092;2022-09-09T08:04:53;96028.47;;;18.33;100.00
23303;BME280;11820;48.738;9.092;2022-09-09T08:07:18;96029.66;;;18.47;100.00
23303;BME280;11820;48.738;9.092;2022-09-09T08:09:44;96027.41;;;18.56;100.00
23303;BME280;11820;48.738;9.092;2022-09-09T08:12:09;96026.25;;;18.47;100.00
23303;BME280;11820;48.738;9.092;2022-09-09T08:14:35;96022.34;;;18.49;100.00
23303;BME280;11820;48.738;9.092;2022-09-09T08:17:01;96025.03;;;18.59;100.00
23303;BME280;11820;48.738;9.092;2022-09-09T08:19:26;96032.41;;;18.62;100.00
23303;BME280;11820;48.738;9.092;2022-09-09T08:21:54;96050.84;;;18.72;100.00
23303;BME280;11820;48.738;9.092;2022-09-09T08:24:19;96058.53;;;18.79;100.00
23303;BME280;11820;48.738;9.092;2022-09-09T08:26:47;96056.72;;;18.84;100.00
23303;BME280;11820;48.738;9.092;2022-09-09T08:29:14;96066.50;;;18.94;100.00
23303;BME280;11820;48.738;9.092;2022-09-09T08:31:50;96035.59;;;19.01;100.00
23303;BME280;11820;48.738;9.092;2022-09-09T08:34:16;96047.25;;;19.15;100.00
23303;BME280;11820;48.738;9.092;2022-09-09T08:36:46;96045.63;;;19.04;100.00
23303;BME280;11820;48.738;9.092;2022-09-09T08:39:14;96048.50;;;19.07;100.00
23303;BME280;11820;48.738;9.092;2022-09-09T08:47:15;96056.50;;;19.17;100.00
23303;BME280;11820;48.738;9.092;2022-09-09T08:52:37;96042.34;;;19.60;100.00
23303;BME280;11820;48.738;9.092;2022-09-09T08:57:53;96037.53;;;19.98;98.85
23303;BME280;11820;48.738;9.092;2022-09-09T09:00:19;96041.63;;;19.79;99.53
23303;BME280;11820;48.738;9.092;2022-09-09T09:05:40;96061.75;;;19.59;100.00
23303;BME280;11820;48.738;9.092;2022-09-09T09:08:22;96058.19;;;19.38;100.00
23303;BME280;11820;48.738;9.092;2022-09-09T09:10:54;96064.94;;;19.24;100.00
23303;BME280;11820;48.738;9.092;2022-09-09T09:15:55;96058.81;;;18.56;100.00
23303;BME280;11820;48.738;9.092;2022-09-09T09:18:22;96061.41;;;18.51;100.00
23303;BME280;11820;48.738;9.092;2022-09-09T09:21:03;96070.97;;;18.40;100.00
23303;BME280;11820;48.738;9.092;2022-09-09T09:23:44;96067.19;;;18.31;100.00
23303;BME280;11820;48.738;9.092;2022-09-09T09:26:11;96069.03;;;18.31;100.00
23303;BME280;11820;48.738;9.092;2022-09-09T09:28:42;96068.09;;;18.42;100.00
23303;BME280;11820;48.738;9.092;2022-09-09T09:31:11;96063.53;;;18.32;100.00
23303;BME280;11820;48.738;9.092;2022-09-09T09:36:06;96059.44;;;18.68;100.00
23303;BME280;11820;48.738;9.092;2022-09-09T09:38:34;96050.16;;;18.82;100.00
23303;BME280;11820;48.738;9.092;2022-09-09T09:41:00;96034.63;;;19.07;100.00
23303;BME280;11820;48.738;9.092;2022-09-09T09:43:33;96043.69;;;19.26;100.00
23303;BME280;11820;48.738;9.092;2022-09-09T09:45:59;96033.78;;;19.33;100.00
23303;BME280;11820;48.738;9.092;2022-09-09T09:48:26;96035.91;;;19.41;100.00
23303;BME280;11820;48.738;9.092;2022-09-09T09:50:55;96026.31;;;19.61;100.00
23303;BME280;11820;48.738;9.092;2022-09-09T09:53:25;96026.94;;;19.83;100.00
23303;BME280;11820;48.738;9.092;2022-09-09T09:56:05;96022.00;;;19.96;100.00
23303;BME280;11820;48.738;9.092;2022-09-09T10:01:30;96017.66;;;20.22;100.00
23303;BME280;11820;48.738;9.092;2022-09-09T10:04:21;96007.19;;;20.37;100.00
23303;BME280;11820;48.738;9.092;2022-09-09T10:06:49;96006.66;;;20.30;99.41
23303;BME280;11820;48.738;9.092;2022-09-09T10:09:22;95996.69;;;20.52;97.18
23303;BME280;11820;48.738;9.092;2022-09-09T10:11:57;95993.34;;;20.86;100.00
23303;BME280;11820;48.738;9.092;2022-09-09T10:22:33;95995.03;;;21.60;96.42
23303;BME280;11820;48.738;9.092;2022-09-09T10:25:18;96003.00;;;21.31;90.98
23303;BME280;11820;48.738;9.092;2022-09-09T10:33:15;95987.25;;;21.99;89.46
23303;BME280;11820;48.738;9.092;2022-09-09T10:36:11;95993.72;;;22.26;87.00
23303;BME280;11820;48.738;9.092;2022-09-09T10:38:47;95994.06;;;22.05;88.37
23303;BME280;11820;48.738;9.092;2022-09-09T10:41:22;95989.13;;;22.47;85.12
23303;BME280;11820;48.738;9.092;2022-09-09T10:43:57;95989.50;;;22.25;84.95
23303;BME280;11820;48.738;9.092;2022-09-09T10:49:57;95992.22;;;22.05;87.21
23303;BME280;11820;48.738;9.092;2022-09-09T10:52:35;95994.09;;;23.67;78.67
23303;BME280;11820;48.738;9.092;2022-09-09T10:55:18;95980.41;;;24.67;71.16
23303;BME280;11820;48.738;9.092;2022-09-09T10:57:52;95970.81;;;24.71;69.31
23303;BME280;11820;48.738;9.092;2022-09-09T11:00:42;96001.94;;;24.00;65.48
23303;BME280;11820;48.738;9.092;2022-09-09T11:03:22;96002.75;;;24.19;62.76
23303;BME280;11820;48.738;9.092;2022-09-09T11:05:53;95993.13;;;23.34;64.39
23303;BME280;11820;48.738;9.092;2022-09-09T11:08:25;95988.72;;;22.63;65.41
23303;BME280;11820;48.738;9.092;2022-09-09T11:11:04;96000.00;;;22.30;68.65
23303;BME280;11820;48.738;9.092;2022-09-09T11:16:29;96013.22;;;21.62;70.20
23303;BME280;11820;48.738;9.092;2022-09-09T11:21:31;96022.75;;;21.13;72.37
23303;BME280;11820;48.738;9.092;2022-09-09T11:24:09;96030.66;;;20.98;72.14
23303;BME280;11820;48.738;9.092;2022-09-09T11:26:41;96031.44;;;21.04;72.14
23303;BME280;11820;48.738;9.092;2022-09-09T11:38:13;96061.25;;;19.67;84.64
23303;BME280;11820;48.738;9.092;2022-09-09T11:40:40;96050.31;;;19.38;87.02
23303;BME280;11820;48.738;9.092;2022-09-09T11:45:40;96035.56;;;19.73;86.22
23303;BME280;11820;48.738;9.092;2022-09-09T11:48:23;96032.31;;;19.52;87.48
23303;BME280;11820;48.738;9.092;2022-09-09T11:51:01;96021.22;;;19.91;84.73
23303;BME280;11820;48.738;9.092;2022-09-09T11:53:28;96018.69;;;20.16;84.93
23303;BME280;11820;48.738;9.092;2022-09-09T11:56:06;96018.97;;;20.24;82.57
23303;BME280;11820;48.738;9.092;2022-09-09T11:58:37;96019.06;;;20.64;82.03
23303;BME280;11820;48.738;9.092;2022-09-09T12:01:15;96006.97;;;20.98;83.88
23303;BME280;11820;48.738;9.092;2022-09-09T12:03:43;96012.34;;;21.86;77.83
23303;BME280;11820;48.738;9.092;2022-09-09T12:06:29;96011.19;;;22.07;72.19
23303;BME280;11820;48.738;9.092;2022-09-09T12:09:12;95999.13;;;23.92;63.28
23303;BME280;11820;48.738;9.092;2022-09-09T12:11:41;96002.31;;;23.65;63.13
23303;BME280;11820;48.738;9.092;2022-09-09T12:14:19;96010.44;;;22.84;62.94
23303;BME280;11820;48.738;9.092;2022-09-09T12:16:46;96002.78;;;23.96;59.57
23303;BME280;11820;48.738;9.092;2022-09-09T12:19:18;95996.81;;;24.83;56.32
23303;BME280;11820;48.738;9.092;2022-09-09T12:22:06;95997.06;;;25.18;52.29
23303;BME280;11820;48.738;9.092;2022-09-09T12:24:43;95991.91;;;24.58;51.44
23303;BME280;11820;48.738;9.092;2022-09-09T12:27:23;96002.31;;;24.49;51.44
23303;BME280;11820;48.738;9.092;2022-09-09T12:30:07;95992.78;;;25.76;48.89
23303;BME280;11820;48.738;9.092;2022-09-09T12:32:34;95997.28;;;24.53;50.39
23303;BME280;11820;48.738;9.092;2022-09-09T12:35:11;96003.50;;;23.78;51.30
23303;BME280;11820;48.738;9.092;2022-09-09T12:40:27;95999.00;;;22.16;58.20
23303;BME280;11820;48.738;9.092;2022-09-09T12:42:54;96003.34;;;21.97;59.88
23303;BME280;11820;48.738;9.092;2022-09-09T12:45:28;96006.22;;;22.01;60.67
23303;BME280;11820;48.738;9.092;2022-09-09T12:48:09;96000.28;;;22.24;61.89
23303;BME280;11820;48.738;9.092;2022-09-09T12:50:46;95994.44;;;22.32;63.88
23303;BME280;11820;48.738;9.092;2022-09-09T12:53:34;95987.13;;;23.52;57.52
23303;BME280;11820;48.738;9.092;2022-09-09T12:56:03;95983.91;;;23.84;56.44
23303;BME280;11820;48.738;9.092;2022-09-09T12:58:30;95998.72;;;23.33;57.18
23303;BME280;11820;48.738;9.092;2022-09-09T13:01:01;95998.88;;;21.93;62.72
23303;BME280;11820;48.738;9.092;2022-09-09T13:03:31;95987.78;;;22.49;61.60
23303;BME280;11820;48.738;9.092;2022-09-09T13:06:21;95989.41;;;23.40;56.06
23303;BME280;11820;48.738;9.092;2022-09-09T13:08:48;95986.97;;;23.44;55.87
23303;BME280;11820;48.738;9.092;2022-09-09T13:11:18;95973.00;;;23.90;55.11
23303;BME280;11820;48.738;9.092;2022-09-09T13:13:53;95960.94;;;24.58;52.59
23303;BME280;11820;48.738;9.092;2022-09-09T13:16:22;95955.44;;;23.99;53.19
23303;BME280;11820;48.738;9.092;2022-09-09T13:18:48;95983.75;;;24.54;52.23
23303;BME280;11820;48.738;9.092;2022-09-09T13:21:14;95952.81;;;24.55;49.92
23303;BME280;11820;48.738;9.092;2022-09-09T13:23:40;95964.16;;;24.87;49.29
23303;BME280;11820;48.738;9.092;2022-09-09T13:26:25;95956.78;;;25.61;47.27
23303;BME280;11820;48.738;9.092;2022-09-09T13:28:54;95963.84;;;25.79;45.73
23303;BME280;11820;48.738;9.092;2022-09-09T13:31:23;95942.41;;;27.04;45.68
23303;BME280;11820;48.738;9.092;2022-09-09T13:33:49;95947.56;;;26.21;44.72
23303;BME280;11820;48.738;9.092;2022-09-09T13:36:15;95955.19;;;25.47;46.58
23303;BME280;11820;48.738;9.092;2022-09-09T13:38:54;95959.94;;;24.36;48.27
23303;BME280;11820;48.738;9.092;2022-09-09T13:41:22;95969.16;;;24.20;48.83
23303;BME280;11820;48.738;9.092;2022-09-09T13:43:49;95958.03;;;24.41;48.79
23303;BME280;11820;48.738;9.092;2022-09-09T13:46:35;95952.28;;;24.16;49.15
23303;BME280;11820;48.738;9.092;2022-09-09T13:54:03;95926.97;;;31.89;36.02
23303;BME280;11820;48.738;9.092;2022-09-09T13:56:30;95928.22;;;34.17;33.37
23303;BME280;11820;48.738;9.092;2022-09-09T13:58:56;95940.03;;;33.67;31.70
23303;BME280;11820;48.738;9.092;2022-09-09T14:01:23;95926.44;;;34.78;30.70
23303;BME280;11820;48.738;9.092;2022-09-09T14:03:48;95927.81;;;36.00;29.87
23303;BME280;11820;48.738;9.092;2022-09-09T14:06:14;95916.50;;;36.13;29.87
23303;BME280;11820;48.738;9.092;2022-09-09T14:08:39;95924.88;;;32.06;32.54
23303;BME280;11820;48.738;9.092;2022-09-09T14:11:06;95926.22;;;33.34;31.19
23303;BME280;11820;48.738;9.092;2022-09-09T14:13:33;95921.41;;;34.58;30.48
23303;BME280;11820;48.738;9.092;2022-09-09T14:15:59;95940.13;;;27.80;37.26
23303;BME280;11820;48.738;9.092;2022-09-09T14:18:24;95934.66;;;26.06;40.85
23303;BME280;11820;48.738;9.092;2022-09-09T14:20:50;95944.50;;;25.65;41.98
23303;BME280;11820;48.738;9.092;2022-09-09T14:23:16;95941.75;;;24.48;43.73
23303;BME280;11820;48.738;9.092;2022-09-09T14:25:43;95946.13;;;23.83;45.06
23303;BME280;11820;48.738;9.092;2022-09-09T14:28:12;95930.38;;;25.29;42.70
23303;BME280;11820;48.738;9.092;2022-09-09T14:30:39;95940.50;;;23.19;45.54
23303;BME280;11820;48.738;9.092;2022-09-09T14:33:06;95930.31;;;24.20;45.10
23303;BME280;11820;48.738;9.092;2022-09-09T14:35:31;95941.63;;;23.60;45.54
23303;BME280;11820;48.738;9.092;2022-09-09T14:37:58;95931.00;;;26.51;42.31
23303;BME280;11820;48.738;9.092;2022-09-09T14:40:23;95935.88;;;26.79;39.54
23303;BME280;11820;48.738;9.092;2022-09-09T14:42:49;95930.47;;;25.51;42.55
23303;BME280;11820;48.738;9.092;2022-09-09T14:45:14;95938.19;;;26.51;39.78
23303;BME280;11820;48.738;9.092;2022-09-09T14:47:39;95933.19;;;26.00;41.63